createdAt,value
2022-11-16T00:00:17.058Z,3.60
2022-11-16T00:02:45.010Z,3.35
2022-11-16T00:05:12.934Z,3.33
2022-11-16T00:07:40.690Z,3.67
2022-11-16T00:10:11.216Z,3.00
2022-11-16T00:12:47.886Z,3.15
2022-11-16T00:15:17.164Z,3.25
2022-11-16T00:17:44.869Z,3.53
2022-11-16T00:20:13.029Z,3.20
2022-11-16T00:22:41.206Z,3.35
2022-11-16T00:25:11.050Z,3.80
2022-11-16T00:27:40.314Z,3.35
2022-11-16T00:30:10.821Z,3.30
2022-11-16T00:32:39.838Z,3.83
2022-11-16T00:35:09.786Z,3.50
2022-11-16T00:37:38.356Z,3.38
2022-11-16T00:40:07.417Z,3.70
2022-11-16T00:42:35.930Z,3.55
2022-11-16T00:45:03.822Z,3.17
2022-11-16T00:47:32.229Z,3.13
2022-11-16T00:50:01.456Z,3.47
2022-11-16T00:52:29.289Z,3.23
2022-11-16T00:54:56.937Z,3.45
2022-11-16T00:57:25.691Z,3.30
2022-11-16T00:59:54.219Z,3.22
2022-11-16T01:02:22.938Z,3.30
2022-11-16T01:04:50.743Z,3.50
2022-11-16T01:07:19.945Z,3.67
2022-11-16T01:09:48.243Z,3.88
2022-11-16T01:12:17.326Z,3.67
2022-11-16T01:15:46.538Z,3.50
2022-11-16T01:18:14.159Z,3.88
2022-11-16T01:20:41.995Z,3.73
2022-11-16T01:23:15.986Z,3.78
2022-11-16T01:25:43.547Z,3.75
2022-11-16T01:28:11.115Z,4.15
2022-11-16T01:30:38.977Z,4.13
2022-11-16T01:33:06.567Z,4.40
2022-11-16T01:35:34.246Z,4.40
2022-11-16T01:38:01.968Z,3.92
2022-11-16T01:40:32.266Z,4.13
2022-11-16T01:43:02.080Z,4.00
2022-11-16T01:45:36.642Z,4.07
2022-11-16T01:48:04.709Z,4.10
2022-11-16T01:50:33.319Z,4.18
2022-11-16T01:53:03.603Z,4.20
2022-11-16T01:55:35.277Z,4.18
2022-11-16T01:58:03.522Z,4.15
2022-11-16T02:00:31.931Z,4.50
2022-11-16T02:02:59.668Z,4.40
2022-11-16T02:05:32.212Z,4.55
2022-11-16T02:08:31.831Z,4.18
2022-11-16T02:11:24.329Z,4.32
2022-11-16T02:13:59.329Z,4.38
2022-11-16T02:16:34.434Z,4.70
2022-11-16T02:19:20.902Z,5.00
2022-11-16T02:21:53.122Z,4.60
2022-11-16T02:24:38.190Z,5.10
2022-11-16T02:27:16.997Z,4.67
2022-11-16T02:29:49.027Z,4.20
2022-11-16T02:32:19.968Z,4.28
2022-11-16T02:34:50.219Z,4.80
2022-11-16T02:37:19.794Z,4.70
2022-11-16T02:39:49.894Z,4.18
2022-11-16T02:42:19.590Z,4.57
2022-11-16T02:44:55.407Z,4.20
2022-11-16T02:47:26.422Z,4.40
2022-11-16T02:49:58.162Z,4.22
2022-11-16T02:52:28.780Z,4.57
2022-11-16T02:55:57.908Z,4.28
2022-11-16T02:58:26.650Z,4.15
2022-11-16T03:01:01.177Z,4.10
2022-11-16T03:03:31.675Z,4.10
2022-11-16T03:06:01.733Z,4.18
2022-11-16T03:08:32.176Z,4.07
2022-11-16T03:11:20.171Z,4.25
2022-11-16T03:13:51.118Z,3.50
2022-11-16T03:16:24.625Z,4.10
2022-11-16T03:18:53.793Z,3.90
2022-11-16T03:21:26.691Z,3.95
2022-11-16T03:23:54.679Z,4.00
2022-11-16T03:26:24.950Z,3.88
2022-11-16T03:28:57.164Z,3.85
2022-11-16T03:31:30.655Z,4.30
2022-11-16T03:34:02.397Z,3.92
2022-11-16T03:36:32.763Z,3.72
2022-11-16T03:39:03.553Z,3.85
2022-11-16T03:41:32.645Z,3.88
2022-11-16T03:44:01.134Z,4.00
2022-11-16T03:46:30.089Z,4.30
2022-11-16T03:48:58.709Z,4.00
2022-11-16T03:51:26.710Z,3.83
2022-11-16T03:53:54.379Z,3.88
2022-11-16T03:56:22.763Z,4.20
2022-11-16T03:58:50.584Z,4.20
2022-11-16T04:01:18.318Z,4.15
2022-11-16T04:03:50.524Z,4.03
2022-11-16T04:06:36.437Z,4.03
2022-11-16T04:09:24.759Z,4.27
2022-11-16T04:12:11.108Z,4.38
2022-11-16T04:14:57.370Z,4.13
2022-11-16T04:17:44.169Z,4.43
2022-11-16T04:20:40.342Z,4.05
2022-11-16T04:27:10.155Z,4.28
2022-11-16T04:29:39.480Z,4.20
2022-11-16T04:32:25.087Z,3.80
2022-11-16T04:35:10.379Z,3.92
2022-11-16T04:37:52.714Z,4.28
2022-11-16T04:40:22.245Z,4.18
2022-11-16T04:42:52.434Z,4.33
2022-11-16T04:45:37.906Z,3.80
2022-11-16T04:48:11.522Z,4.00
2022-11-16T04:50:40.309Z,3.63
2022-11-16T04:53:09.554Z,3.90
2022-11-16T04:55:37.327Z,3.83
2022-11-16T04:58:05.731Z,3.17
2022-11-16T05:00:34.214Z,2.67
2022-11-16T05:03:02.108Z,2.67
2022-11-16T05:05:30.080Z,3.00
2022-11-16T05:07:58.762Z,2.65
2022-11-16T05:10:27.719Z,2.78
2022-11-16T05:12:55.403Z,2.22
2022-11-16T05:15:23.021Z,2.67
2022-11-16T05:17:54.815Z,2.35
2022-11-16T05:20:40.549Z,2.40
2022-11-16T05:23:29.730Z,2.08
2022-11-16T05:25:58.852Z,1.98
2022-11-16T05:28:31.817Z,2.13
2022-11-16T05:30:59.714Z,2.55
2022-11-16T05:33:28.539Z,2.47
2022-11-16T05:35:56.091Z,2.22
2022-11-16T05:38:24.401Z,2.33
2022-11-16T05:40:53.112Z,2.20
2022-11-16T05:43:23.968Z,2.60
2022-11-16T05:45:52.488Z,1.67
2022-11-16T05:48:21.090Z,1.55
2022-11-16T05:50:50.350Z,1.77
2022-11-16T05:53:17.966Z,2.10
2022-11-16T05:55:45.703Z,1.83
2022-11-16T05:58:15.570Z,1.85
2022-11-16T06:00:47.205Z,2.05
2022-11-16T06:03:15.467Z,1.73
2022-11-16T06:05:43.070Z,1.83
2022-11-16T06:08:10.926Z,1.65
2022-11-16T06:10:38.530Z,1.23
2022-11-16T06:13:07.141Z,0.63
2022-11-16T06:15:38.529Z,0.50
2022-11-16T06:18:10.894Z,1.10
2022-11-16T06:20:39.507Z,0.80
2022-11-16T06:23:08.572Z,1.35
2022-11-16T06:25:36.315Z,0.55
2022-11-16T06:28:07.957Z,0.98
2022-11-16T06:30:36.536Z,0.85
2022-11-16T06:33:04.296Z,0.25
2022-11-16T06:35:35.586Z,0.60
2022-11-16T06:38:05.235Z,0.40
2022-11-16T06:40:33.253Z,0.57
2022-11-16T06:43:01.092Z,0.45
2022-11-16T06:45:29.910Z,0.60
2022-11-16T06:47:57.764Z,0.70
2022-11-16T06:50:25.545Z,0.63
2022-11-16T06:52:55.801Z,0.77
2022-11-16T06:55:24.557Z,0.60
2022-11-16T06:57:53.040Z,1.00
2022-11-16T07:00:22.688Z,0.68
2022-11-16T07:02:50.577Z,0.40
2022-11-16T07:05:19.124Z,0.40
2022-11-16T07:07:46.969Z,0.57
2022-11-16T07:10:17.479Z,0.50
2022-11-16T07:12:45.178Z,1.05
2022-11-16T07:15:12.987Z,0.50
2022-11-16T07:17:43.422Z,0.87
2022-11-16T07:20:12.965Z,0.63
2022-11-16T07:22:45.927Z,0.57
2022-11-16T07:25:14.642Z,0.88
2022-11-16T07:27:43.665Z,1.05
2022-11-16T07:30:12.423Z,0.65
2022-11-16T07:32:40.096Z,0.20
2022-11-16T07:35:08.370Z,0.43
2022-11-16T07:37:36.329Z,0.98
2022-11-16T07:40:05.414Z,0.50
2022-11-16T07:42:33.868Z,0.50
2022-11-16T07:45:02.816Z,0.30
2022-11-16T07:47:30.424Z,0.43
2022-11-16T07:49:57.886Z,0.50
2022-11-16T07:52:26.502Z,0.68
2022-11-16T07:54:54.477Z,0.73
2022-11-16T07:57:22.323Z,0.17
2022-11-16T07:59:49.798Z,0.30
2022-11-16T08:02:19.502Z,1.02
2022-11-16T08:04:47.200Z,0.50
2022-11-16T08:07:16.456Z,0.80
2022-11-16T08:09:44.870Z,0.45
2022-11-16T08:12:12.879Z,0.40
2022-11-16T08:14:40.599Z,0.43
2022-11-16T08:17:08.545Z,0.68
2022-11-16T08:19:39.330Z,0.17
2022-11-16T08:22:06.995Z,0.95
2022-11-16T08:24:34.817Z,0.63
2022-11-16T08:27:02.403Z,1.48
2022-11-16T08:29:30.595Z,0.55
2022-11-16T08:31:58.336Z,0.57
2022-11-16T08:34:25.924Z,0.40
2022-11-16T08:36:54.914Z,0.80
2022-11-16T08:39:22.671Z,0.40
2022-11-16T08:41:51.390Z,0.40
2022-11-16T08:44:18.978Z,1.00
2022-11-16T08:46:46.715Z,1.20
2022-11-16T08:49:14.395Z,0.38
2022-11-16T08:51:41.917Z,0.80
2022-11-16T08:54:11.019Z,0.43
2022-11-16T08:56:38.674Z,0.50
2022-11-16T08:59:06.526Z,0.50
2022-11-16T09:01:35.025Z,0.30
2022-11-16T09:04:02.660Z,0.55
2022-11-16T09:06:30.377Z,0.95
2022-11-16T09:08:58.140Z,0.30
2022-11-16T09:11:27.199Z,0.38
2022-11-16T09:13:56.076Z,1.05
2022-11-16T09:16:24.930Z,0.63
2022-11-16T09:18:52.943Z,0.70
2022-11-16T09:21:22.077Z,0.50
2022-11-16T09:23:51.672Z,0.43
2022-11-16T09:26:21.636Z,0.50
2022-11-16T09:28:55.084Z,0.40
2022-11-16T09:31:23.700Z,0.70
2022-11-16T09:33:52.600Z,0.70
2022-11-16T09:36:21.648Z,0.57
2022-11-16T09:41:57.658Z,0.77
2022-11-16T09:45:07.636Z,0.90
2022-11-16T09:47:42.393Z,0.70
2022-11-16T09:50:19.987Z,1.52
2022-11-16T09:52:49.465Z,1.58
2022-11-16T09:55:24.825Z,1.33
2022-11-16T09:57:53.989Z,0.93
2022-11-16T10:00:25.244Z,1.60
2022-11-16T10:03:00.524Z,1.08
2022-11-16T10:05:32.532Z,1.08
2022-11-16T10:08:04.046Z,1.55
2022-11-16T10:10:37.980Z,1.40
2022-11-16T10:13:12.214Z,1.70
2022-11-16T10:15:53.641Z,3.15
2022-11-16T10:18:30.047Z,2.47
2022-11-16T10:21:11.099Z,3.35
2022-11-16T10:23:49.767Z,3.83
2022-11-16T10:26:25.276Z,4.17
2022-11-16T10:29:12.607Z,5.10
2022-11-16T10:31:55.298Z,4.50
2022-11-16T10:34:27.033Z,4.60
2022-11-16T10:36:57.720Z,4.47
2022-11-16T10:39:27.348Z,3.58
2022-11-16T10:41:56.364Z,3.43
2022-11-16T10:44:31.754Z,3.13
2022-11-16T10:47:03.847Z,2.50
2022-11-16T10:49:36.713Z,2.38
2022-11-16T10:52:04.487Z,2.17
2022-11-16T10:54:33.333Z,1.83
2022-11-16T10:57:04.867Z,1.70
2022-11-16T10:59:40.661Z,2.08
2022-11-16T11:02:31.123Z,2.30
2022-11-16T11:05:03.574Z,2.00
2022-11-16T11:07:32.226Z,2.00
2022-11-16T11:10:00.342Z,1.80
2022-11-16T11:12:42.842Z,1.43
2022-11-16T11:15:27.155Z,1.77
2022-11-16T11:18:27.663Z,1.50
2022-11-16T11:21:10.120Z,1.45
2022-11-16T11:23:44.092Z,1.45
2022-11-16T11:26:31.726Z,1.60
2022-11-16T11:29:03.089Z,1.60
2022-11-16T11:31:35.380Z,1.30
2022-11-16T11:34:12.310Z,1.77
2022-11-16T11:36:45.331Z,1.38
2022-11-16T11:39:29.507Z,1.30
2022-11-16T11:42:06.607Z,1.92
2022-11-16T11:44:39.978Z,2.00
2022-11-16T11:47:56.307Z,1.20
2022-11-16T11:50:17.573Z,2.15
2022-11-16T11:52:55.535Z,1.67
2022-11-16T11:55:23.333Z,1.30
2022-11-16T11:57:54.082Z,1.65
2022-11-16T12:00:22.422Z,1.63
2022-11-16T12:03:12.815Z,1.13
2022-11-16T12:05:52.340Z,1.20
2022-11-16T12:08:32.839Z,1.25
2022-11-16T12:11:08.015Z,1.33
2022-11-16T12:13:54.505Z,1.15
2022-11-16T12:16:28.586Z,1.10
2022-11-16T12:19:06.323Z,1.10
2022-11-16T12:21:43.462Z,1.60
2022-11-16T12:24:27.436Z,1.23
2022-11-16T12:27:04.955Z,1.10
2022-11-16T12:29:39.420Z,1.07
2022-11-16T12:32:37.889Z,1.15
2022-11-16T12:35:19.253Z,1.00
2022-11-16T12:37:51.796Z,1.08
2022-11-16T12:40:39.062Z,0.90
2022-11-16T12:43:13.017Z,1.00
2022-11-16T12:45:48.279Z,0.85
2022-11-16T12:48:30.852Z,0.95
2022-11-16T12:51:00.654Z,0.60
2022-11-16T12:53:43.692Z,1.38
2022-11-16T12:56:19.604Z,1.10
2022-11-16T12:59:04.383Z,1.20
2022-11-16T13:01:37.019Z,1.00
2022-11-16T13:04:07.674Z,1.10
2022-11-16T13:06:39.370Z,1.33
2022-11-16T13:09:09.579Z,0.90
2022-11-16T13:11:43.346Z,0.80
2022-11-16T13:14:14.603Z,0.93
2022-11-16T13:16:42.665Z,1.10
2022-11-16T13:19:13.658Z,1.00
2022-11-16T13:21:47.039Z,0.90
2022-11-16T13:24:25.521Z,0.98
2022-11-16T13:27:14.183Z,1.30
2022-11-16T13:29:45.853Z,1.27
2022-11-16T13:32:19.090Z,0.80
2022-11-16T13:34:46.773Z,1.20
2022-11-16T13:37:42.128Z,0.93
2022-11-16T13:40:24.694Z,0.90
2022-11-16T13:43:20.418Z,0.60
2022-11-16T13:45:55.044Z,0.93
2022-11-16T13:48:26.566Z,0.70
2022-11-16T13:50:56.082Z,0.68
2022-11-16T13:56:16.938Z,0.77
2022-11-16T13:58:51.375Z,0.70
2022-11-16T14:01:20.322Z,0.60
2022-11-16T14:03:51.295Z,0.52
2022-11-16T14:06:58.046Z,0.85
2022-11-16T14:09:48.987Z,0.83
2022-11-16T14:12:58.732Z,0.88
2022-11-16T14:15:36.019Z,1.00
2022-11-16T14:18:35.010Z,0.97
2022-11-16T14:21:11.790Z,0.80
2022-11-16T14:23:57.458Z,0.80
2022-11-16T14:26:29.243Z,1.00
2022-11-16T14:29:10.651Z,0.90
2022-11-16T14:31:50.880Z,0.93
2022-11-16T14:34:23.788Z,1.30
2022-11-16T14:36:52.965Z,0.60
2022-11-16T14:39:30.968Z,0.80
2022-11-16T14:42:02.832Z,1.20
2022-11-16T14:44:34.983Z,1.00
2022-11-16T14:47:03.962Z,0.82
2022-11-16T14:49:35.862Z,0.80
2022-11-16T14:52:04.813Z,1.02
2022-11-16T14:54:38.044Z,1.05
2022-11-16T14:57:08.294Z,0.88
2022-11-16T14:59:35.849Z,0.90
2022-11-16T15:02:07.072Z,1.23
2022-11-16T15:04:38.505Z,1.08
2022-11-16T15:07:06.678Z,1.08
2022-11-16T15:09:36.958Z,1.00
2022-11-16T15:12:23.992Z,0.88
2022-11-16T15:14:53.361Z,1.00
2022-11-16T15:17:31.845Z,1.10
2022-11-16T15:20:03.227Z,1.20
2022-11-16T15:22:32.707Z,1.13
2022-11-16T15:26:04.535Z,1.10
2022-11-16T15:28:33.974Z,1.00
2022-11-16T15:31:04.377Z,1.15
2022-11-16T15:33:34.155Z,1.23
2022-11-16T15:36:22.893Z,1.00
2022-11-16T15:38:53.719Z,1.37
2022-11-16T15:41:24.321Z,1.10
2022-11-16T15:44:13.299Z,1.30
2022-11-16T15:46:43.202Z,1.00
2022-11-16T15:49:20.702Z,1.45
2022-11-16T15:51:51.169Z,1.92
2022-11-16T15:54:24.273Z,1.30
2022-11-16T15:56:55.406Z,1.42
2022-11-16T15:59:27.906Z,1.10
2022-11-16T16:01:55.769Z,1.00
2022-11-16T16:04:23.580Z,1.17
2022-11-16T16:06:53.853Z,1.42
2022-11-16T16:09:25.027Z,1.17
2022-11-16T16:11:52.877Z,1.30
2022-11-16T16:14:25.931Z,1.15
2022-11-16T16:16:54.955Z,1.30
2022-11-16T16:19:32.777Z,1.30
2022-11-16T16:22:02.574Z,1.73
2022-11-16T16:24:42.027Z,1.92
2022-11-16T16:27:12.532Z,1.63
2022-11-16T16:29:40.522Z,2.13
2022-11-16T16:32:12.030Z,1.50
2022-11-16T16:34:42.387Z,1.63
2022-11-16T16:37:13.343Z,2.28
2022-11-16T16:39:42.207Z,2.60
2022-11-16T16:42:12.485Z,2.10
2022-11-16T16:44:40.305Z,2.70
2022-11-16T16:47:07.861Z,2.33
2022-11-16T16:49:35.566Z,2.40
2022-11-16T16:52:03.639Z,2.67
2022-11-16T16:54:32.746Z,2.40
2022-11-16T16:57:01.341Z,2.13
2022-11-16T16:59:29.928Z,2.10
2022-11-16T17:01:57.916Z,1.95
2022-11-16T17:04:25.797Z,1.83
2022-11-16T17:06:54.255Z,2.20
2022-11-16T17:09:23.586Z,2.00
2022-11-16T17:11:52.718Z,1.83
2022-11-16T17:14:24.593Z,1.92
2022-11-16T17:16:53.391Z,2.00
2022-11-16T17:19:23.877Z,2.25
2022-11-16T17:21:52.209Z,2.05
2022-11-16T17:24:19.945Z,2.03
2022-11-16T17:26:48.706Z,2.40
2022-11-16T17:29:17.995Z,2.25
2022-11-16T17:31:48.184Z,2.53
2022-11-16T17:34:15.868Z,2.10
2022-11-16T17:40:25.406Z,2.08
2022-11-16T17:42:52.935Z,1.80
2022-11-16T17:45:22.081Z,2.00
2022-11-16T17:47:49.936Z,2.00
2022-11-16T17:50:17.959Z,2.30
2022-11-16T17:52:47.177Z,2.28
2022-11-16T17:55:15.070Z,2.15
2022-11-16T17:57:42.908Z,1.97
2022-11-16T18:00:11.847Z,2.17
2022-11-16T18:02:40.964Z,2.20
2022-11-16T18:05:09.843Z,2.80
2022-11-16T18:07:38.341Z,2.33
2022-11-16T18:10:07.102Z,2.60
2022-11-16T18:12:34.742Z,2.20
2022-11-16T18:15:28.109Z,2.50
2022-11-16T18:17:51.872Z,2.83
2022-11-16T18:20:21.369Z,2.55
2022-11-16T18:22:48.916Z,2.70
2022-11-16T18:25:16.935Z,2.53
2022-11-16T18:27:45.394Z,2.90
2022-11-16T18:30:14.142Z,2.67
2022-11-16T18:32:41.774Z,3.30
2022-11-16T18:35:11.000Z,2.90
2022-11-16T18:37:38.540Z,3.13
2022-11-16T18:40:07.240Z,2.97
2022-11-16T18:42:35.830Z,3.00
2022-11-16T18:45:03.715Z,2.80
2022-11-16T18:47:31.411Z,3.28
2022-11-16T18:49:59.047Z,2.80
2022-11-16T18:52:28.793Z,3.35
2022-11-16T18:54:56.521Z,3.33
2022-11-16T18:57:24.055Z,3.00
2022-11-16T18:59:51.672Z,3.30
2022-11-16T19:02:20.105Z,2.85
2022-11-16T19:04:47.808Z,3.05
2022-11-16T19:07:16.472Z,3.07
2022-11-16T19:09:45.615Z,2.95
2022-11-16T19:12:13.239Z,3.25
2022-11-16T19:14:41.207Z,3.03
2022-11-16T19:17:09.206Z,2.80
2022-11-16T19:19:37.510Z,3.58
2022-11-16T19:22:05.188Z,3.10
2022-11-16T19:24:32.970Z,3.20
2022-11-16T19:27:02.198Z,3.10
2022-11-16T19:29:29.803Z,3.30
2022-11-16T19:31:57.514Z,3.10
2022-11-16T19:34:30.405Z,3.13
2022-11-16T19:37:00.683Z,2.53
2022-11-16T19:39:28.293Z,3.00
2022-11-16T19:41:55.905Z,3.00
2022-11-16T19:44:24.943Z,2.92
2022-11-16T19:46:53.068Z,2.95
2022-11-16T19:49:21.808Z,2.67
2022-11-16T19:51:50.240Z,2.67
2022-11-16T19:54:18.230Z,2.73
2022-11-16T19:56:51.977Z,3.10
2022-11-16T19:59:22.890Z,2.70
2022-11-16T20:01:51.920Z,3.07
2022-11-16T20:04:19.475Z,2.78
2022-11-16T20:06:48.485Z,2.65
2022-11-16T20:09:16.269Z,2.78
2022-11-16T20:11:44.108Z,2.90
2022-11-16T20:14:13.983Z,2.88
2022-11-16T20:16:43.695Z,2.35
2022-11-16T20:19:12.672Z,3.20
2022-11-16T20:21:41.811Z,2.90
2022-11-16T20:24:15.747Z,2.33
2022-11-16T20:26:46.789Z,2.20
2022-11-16T20:29:16.582Z,2.80
2022-11-16T20:31:45.390Z,3.08
2022-11-16T20:34:15.470Z,2.65
2022-11-16T20:36:44.330Z,3.13
2022-11-16T20:39:15.067Z,2.80
2022-11-16T20:41:43.713Z,2.67
2022-11-16T20:44:16.640Z,2.97
2022-11-16T20:46:45.281Z,3.13
2022-11-16T20:49:14.763Z,3.92
2022-11-16T20:51:42.321Z,3.47
2022-11-16T20:54:11.449Z,3.58
2022-11-16T20:56:39.015Z,3.50
2022-11-16T20:59:06.818Z,3.78
2022-11-16T21:01:34.747Z,3.63
2022-11-16T21:04:05.183Z,3.83
2022-11-16T21:06:34.503Z,3.20
2022-11-16T21:09:02.298Z,3.42
2022-11-16T21:11:51.409Z,3.40
2022-11-16T21:14:18.030Z,3.25
2022-11-16T21:16:46.133Z,3.72
2022-11-16T21:19:14.418Z,3.30
2022-11-16T21:21:43.444Z,3.67
2022-11-16T21:24:12.508Z,3.58
2022-11-16T21:26:41.250Z,3.73
2022-11-16T21:29:09.449Z,3.58
2022-11-16T21:31:38.336Z,3.63
2022-11-16T21:34:07.432Z,3.55
2022-11-16T21:36:36.323Z,4.15
2022-11-16T21:39:05.680Z,3.93
2022-11-16T21:41:33.864Z,4.50
2022-11-16T21:44:01.450Z,4.43
2022-11-16T21:46:29.947Z,4.63
2022-11-16T21:48:58.901Z,4.53
2022-11-16T21:51:27.898Z,5.03
2022-11-16T21:53:55.971Z,4.85
2022-11-16T21:56:27.311Z,5.15
2022-11-16T21:58:55.289Z,5.50
2022-11-16T22:01:23.611Z,5.03
2022-11-16T22:04:11.563Z,5.60
2022-11-16T22:06:57.239Z,4.93
2022-11-16T22:09:24.914Z,5.10
2022-11-16T22:11:53.909Z,5.20
2022-11-16T22:14:21.818Z,5.53
2022-11-16T22:16:50.733Z,5.53
2022-11-16T22:19:19.546Z,5.05
2022-11-16T22:21:47.345Z,5.80
2022-11-16T22:24:14.959Z,5.80
2022-11-16T22:26:42.719Z,5.10
2022-11-16T22:29:11.657Z,4.97
2022-11-16T22:31:39.288Z,5.45
2022-11-16T22:34:07.029Z,5.30
2022-11-16T22:36:34.750Z,5.57
2022-11-16T22:39:03.329Z,5.07
2022-11-16T22:41:31.093Z,4.57
2022-11-16T22:43:58.658Z,4.72
2022-11-16T22:46:27.663Z,4.68
2022-11-16T22:48:55.896Z,4.70
2022-11-16T22:51:25.745Z,4.47
2022-11-16T22:53:54.505Z,4.32
2022-11-16T22:56:23.245Z,4.30
2022-11-16T22:58:51.920Z,3.50
2022-11-16T23:01:20.875Z,4.10
2022-11-16T23:03:50.149Z,3.60
2022-11-16T23:06:18.447Z,3.47
2022-11-16T23:08:45.960Z,3.65
2022-11-16T23:11:32.317Z,3.80
2022-11-16T23:14:17.648Z,3.13
2022-11-16T23:16:47.654Z,4.30
2022-11-16T23:19:36.790Z,3.58
2022-11-16T23:22:22.299Z,3.78
2022-11-16T23:25:08.001Z,3.83
2022-11-16T23:27:40.973Z,3.53
2022-11-16T23:30:12.733Z,4.00
2022-11-16T23:32:40.946Z,3.55
2022-11-16T23:35:10.829Z,3.83
2022-11-16T23:37:50.887Z,3.65
2022-11-16T23:40:19.908Z,3.70
2022-11-16T23:43:05.237Z,3.47
2022-11-16T23:45:32.757Z,3.75
2022-11-16T23:48:00.522Z,3.70
2022-11-16T23:50:30.312Z,3.28
2022-11-16T23:52:58.024Z,3.40
2022-11-16T23:55:26.950Z,4.10
2022-11-16T23:57:55.639Z,3.80
